sensor_id;sensor_type;location;lat;lon;timestamp;pressure;altitude;pressure_sealevel;temperature;humidity
19777;BME280;10047;42.490;26.012;2023-04-19T00:00:38;100986.47;;;11.31;100.00
19777;BME280;10047;42.490;26.012;2023-04-19T00:03:07;101000.63;;;11.51;100.00
19777;BME280;10047;42.490;26.012;2023-04-19T00:05:34;100994.72;;;11.47;100.00
19777;BME280;10047;42.490;26.012;2023-04-19T00:07:59;100978.41;;;11.57;100.00
19777;BME280;10047;42.490;26.012;2023-04-19T00:10:25;100961.59;;;11.47;100.00
19777;BME280;10047;42.490;26.012;2023-04-19T00:12:51;100944.44;;;11.60;100.00
19777;BME280;10047;42.490;26.012;2023-04-19T00:15:16;100867.09;;;11.15;100.00
19777;BME280;10047;42.490;26.012;2023-04-19T00:17:41;100873.59;;;11.32;100.00
19777;BME280;10047;42.490;26.012;2023-04-19T00:20:07;100919.03;;;11.55;100.00
19777;BME280;10047;42.490;26.012;2023-04-19T00:22:34;100850.88;;;11.20;100.00
19777;BME280;10047;42.490;26.012;2023-04-19T00:25:03;100896.41;;;11.39;100.00
19777;BME280;10047;42.490;26.012;2023-04-19T00:27:29;100878.75;;;11.28;100.00
19777;BME280;10047;42.490;26.012;2023-04-19T00:29:54;100880.25;;;11.40;100.00
19777;BME280;10047;42.490;26.012;2023-04-19T00:32:21;100898.00;;;11.44;100.00
19777;BME280;10047;42.490;26.012;2023-04-19T00:34:46;100880.94;;;11.51;100.00
19777;BME280;10047;42.490;26.012;2023-04-19T00:37:12;100870.75;;;11.49;100.00
19777;BME280;10047;42.490;26.012;2023-04-19T00:39:37;100839.03;;;11.18;100.00
19777;BME280;10047;42.490;26.012;2023-04-19T00:42:03;100889.34;;;11.54;100.00
19777;BME280;10047;42.490;26.012;2023-04-19T00:44:28;100828.22;;;11.07;100.00
19777;BME280;10047;42.490;26.012;2023-04-19T00:46:55;100828.13;;;11.11;100.00
19777;BME280;10047;42.490;26.012;2023-04-19T00:49:22;100834.81;;;11.18;100.00
19777;BME280;10047;42.490;26.012;2023-04-19T00:51:49;100864.69;;;11.56;100.00
19777;BME280;10047;42.490;26.012;2023-04-19T00:54:15;100826.75;;;11.41;100.00
19777;BME280;10047;42.490;26.012;2023-04-19T00:56:43;100852.81;;;11.57;100.00
19777;BME280;10047;42.490;26.012;2023-04-19T00:59:08;100851.19;;;11.51;100.00
19777;BME280;10047;42.490;26.012;2023-04-19T01:01:34;100794.81;;;11.23;100.00
19777;BME280;10047;42.490;26.012;2023-04-19T01:04:00;100722.53;;;10.86;100.00
19777;BME280;10047;42.490;26.012;2023-04-19T01:06:27;100734.56;;;10.78;100.00
19777;BME280;10047;42.490;26.012;2023-04-19T01:08:54;100824.09;;;11.49;100.00
19777;BME280;10047;42.490;26.012;2023-04-19T01:11:19;100828.16;;;11.57;100.00
19777;BME280;10047;42.490;26.012;2023-04-19T01:13:45;100783.94;;;11.17;100.00
19777;BME280;10047;42.490;26.012;2023-04-19T01:16:10;100824.00;;;11.55;100.00
19777;BME280;10047;42.490;26.012;2023-04-19T01:18:36;100801.41;;;11.35;100.00
19777;BME280;10047;42.490;26.012;2023-04-19T01:21:03;100742.47;;;11.10;100.00
19777;BME280;10047;42.490;26.012;2023-04-19T01:23:29;100792.84;;;11.41;100.00
19777;BME280;10047;42.490;26.012;2023-04-19T01:25:55;100810.56;;;11.45;100.00
19777;BME280;10047;42.490;26.012;2023-04-19T01:28:20;100762.41;;;11.34;100.00
19777;BME280;10047;42.490;26.012;2023-04-19T01:30:46;100787.75;;;11.39;100.00
19777;BME280;10047;42.490;26.012;2023-04-19T01:33:13;100695.34;;;10.90;100.00
19777;BME280;10047;42.490;26.012;2023-04-19T01:35:38;100788.56;;;11.41;100.00
19777;BME280;10047;42.490;26.012;2023-04-19T01:38:04;100788.63;;;11.38;100.00
19777;BME280;10047;42.490;26.012;2023-04-19T01:40:29;100785.16;;;11.42;100.00
19777;BME280;10047;42.490;26.012;2023-04-19T01:42:55;100773.69;;;11.20;100.00
19777;BME280;10047;42.490;26.012;2023-04-19T01:45:22;100816.47;;;11.49;100.00
19777;BME280;10047;42.490;26.012;2023-04-19T01:47:47;100815.53;;;11.53;100.00
19777;BME280;10047;42.490;26.012;2023-04-19T01:50:13;100812.19;;;11.49;100.00
19777;BME280;10047;42.490;26.012;2023-04-19T01:52:38;100798.03;;;11.34;100.00
19777;BME280;10047;42.490;26.012;2023-04-19T01:55:04;100718.38;;;10.82;100.00
19777;BME280;10047;42.490;26.012;2023-04-19T01:57:29;100768.53;;;11.24;100.00
19777;BME280;10047;42.490;26.012;2023-04-19T01:59:56;100827.19;;;11.63;100.00
19777;BME280;10047;42.490;26.012;2023-04-19T02:02:21;100765.44;;;11.06;100.00
19777;BME280;10047;42.490;26.012;2023-04-19T02:04:46;100781.09;;;11.32;100.00
19777;BME280;10047;42.490;26.012;2023-04-19T02:07:12;100759.72;;;10.95;100.00
19777;BME280;10047;42.490;26.012;2023-04-19T02:09:37;100733.72;;;10.78;100.00
19777;BME280;10047;42.490;26.012;2023-04-19T02:12:04;100763.84;;;11.00;100.00
19777;BME280;10047;42.490;26.012;2023-04-19T02:14:30;100821.59;;;11.46;100.00
19777;BME280;10047;42.490;26.012;2023-04-19T02:16:56;100744.34;;;10.99;100.00
19777;BME280;10047;42.490;26.012;2023-04-19T02:19:21;100791.97;;;11.42;100.00
19777;BME280;10047;42.490;26.012;2023-04-19T02:21:47;100762.09;;;11.04;100.00
19777;BME280;10047;42.490;26.012;2023-04-19T02:24:12;100757.56;;;11.19;100.00
19777;BME280;10047;42.490;26.012;2023-04-19T02:26:38;100754.94;;;11.24;100.00
19777;BME280;10047;42.490;26.012;2023-04-19T02:29:04;100817.28;;;11.51;100.00
19777;BME280;10047;42.490;26.012;2023-04-19T02:31:30;100723.53;;;10.78;100.00
19777;BME280;10047;42.490;26.012;2023-04-19T02:33:55;100766.34;;;11.05;100.00
19777;BME280;10047;42.490;26.012;2023-04-19T02:36:21;100771.34;;;11.08;100.00
19777;BME280;10047;42.490;26.012;2023-04-19T02:38:46;100832.47;;;11.54;100.00
19777;BME280;10047;42.490;26.012;2023-04-19T02:41:11;100787.81;;;11.36;100.00
19777;BME280;10047;42.490;26.012;2023-04-19T02:43:37;100784.91;;;11.56;100.00
19777;BME280;10047;42.490;26.012;2023-04-19T02:46:02;100763.13;;;11.40;100.00
19777;BME280;10047;42.490;26.012;2023-04-19T02:48:28;100797.91;;;11.42;100.00
19777;BME280;10047;42.490;26.012;2023-04-19T02:50:53;100791.91;;;11.43;100.00
19777;BME280;10047;42.490;26.012;2023-04-19T02:53:19;100811.28;;;11.52;100.00
19777;BME280;10047;42.490;26.012;2023-04-19T02:55:44;100793.84;;;11.32;100.00
19777;BME280;10047;42.490;26.012;2023-04-19T02:58:10;100743.56;;;10.96;100.00
19777;BME280;10047;42.490;26.012;2023-04-19T03:00:36;100741.63;;;11.10;100.00
19777;BME280;10047;42.490;26.012;2023-04-19T03:03:02;100763.69;;;11.11;100.00
19777;BME280;10047;42.490;26.012;2023-04-19T03:05:31;100824.81;;;11.57;100.00
19777;BME280;10047;42.490;26.012;2023-04-19T03:07:56;100779.47;;;11.28;100.00
19777;BME280;10047;42.490;26.012;2023-04-19T03:10:22;100836.00;;;11.47;100.00
19777;BME280;10047;42.490;26.012;2023-04-19T03:12:47;100839.13;;;11.61;100.00
19777;BME280;10047;42.490;26.012;2023-04-19T03:15:13;100786.47;;;11.17;100.00
19777;BME280;10047;42.490;26.012;2023-04-19T03:17:38;100801.50;;;11.30;100.00
19777;BME280;10047;42.490;26.012;2023-04-19T03:20:04;100823.00;;;11.14;100.00
19777;BME280;10047;42.490;26.012;2023-04-19T03:22:41;100864.00;;;11.48;100.00
19777;BME280;10047;42.490;26.012;2023-04-19T03:25:06;100853.81;;;11.48;100.00
19777;BME280;10047;42.490;26.012;2023-04-19T03:27:35;100860.88;;;11.32;100.00
19777;BME280;10047;42.490;26.012;2023-04-19T03:30:01;100801.06;;;11.06;100.00
19777;BME280;10047;42.490;26.012;2023-04-19T03:32:26;100763.03;;;10.98;100.00
19777;BME280;10047;42.490;26.012;2023-04-19T03:34:51;100864.59;;;11.62;100.00
19777;BME280;10047;42.490;26.012;2023-04-19T03:37:17;100795.09;;;12.00;100.00
19777;BME280;10047;42.490;26.012;2023-04-19T03:39:42;100871.69;;;11.44;100.00
19777;BME280;10047;42.490;26.012;2023-04-19T03:42:08;100791.81;;;11.02;100.00
19777;BME280;10047;42.490;26.012;2023-04-19T03:44:33;100817.81;;;11.20;100.00
19777;BME280;10047;42.490;26.012;2023-04-19T03:46:58;100810.91;;;11.25;100.00
19777;BME280;10047;42.490;26.012;2023-04-19T03:49:24;100864.72;;;11.55;100.00
19777;BME280;10047;42.490;26.012;2023-04-19T03:51:50;100822.59;;;11.37;100.00
19777;BME280;10047;42.490;26.012;2023-04-19T03:54:15;100860.53;;;11.52;100.00
19777;BME280;10047;42.490;26.012;2023-04-19T03:56:42;100868.97;;;11.54;100.00
19777;BME280;10047;42.490;26.012;2023-04-19T03:59:08;100858.72;;;11.57;100.00
19777;BME280;10047;42.490;26.012;2023-04-19T04:01:35;100845.88;;;11.66;100.00
19777;BME280;10047;42.490;26.012;2023-04-19T04:04:09;100776.94;;;11.28;100.00
19777;BME280;10047;42.490;26.012;2023-04-19T04:06:36;100845.22;;;11.54;100.00
19777;BME280;10047;42.490;26.012;2023-04-19T04:09:01;100825.84;;;11.45;100.00
19777;BME280;10047;42.490;26.012;2023-04-19T04:11:27;100788.84;;;11.26;100.00
19777;BME280;10047;42.490;26.012;2023-04-19T04:13:53;100821.19;;;11.70;100.00
19777;BME280;10047;42.490;26.012;2023-04-19T04:16:18;100571.34;;;11.41;100.00
19777;BME280;10047;42.490;26.012;2023-04-19T04:18:44;100375.94;;;11.50;100.00
19777;BME280;10047;42.490;26.012;2023-04-19T04:21:09;100370.50;;;11.30;100.00
19777;BME280;10047;42.490;26.012;2023-04-19T04:23:34;100363.41;;;11.41;100.00
19777;BME280;10047;42.490;26.012;2023-04-19T04:26:00;100335.50;;;11.38;100.00
19777;BME280;10047;42.490;26.012;2023-04-19T04:28:26;100366.13;;;11.69;100.00
19777;BME280;10047;42.490;26.012;2023-04-19T04:30:53;100361.06;;;11.67;100.00
19777;BME280;10047;42.490;26.012;2023-04-19T04:33:25;100356.56;;;11.77;100.00
19777;BME280;10047;42.490;26.012;2023-04-19T04:35:52;100294.53;;;11.47;100.00
19777;BME280;10047;42.490;26.012;2023-04-19T04:38:18;100298.06;;;11.42;100.00
19777;BME280;10047;42.490;26.012;2023-04-19T04:40:51;100352.88;;;11.88;100.00
19777;BME280;10047;42.490;26.012;2023-04-19T04:43:18;100326.44;;;11.60;100.00
19777;BME280;10047;42.490;26.012;2023-04-19T04:45:45;100235.56;;;13.24;100.00
19777;BME280;10047;42.490;26.012;2023-04-19T04:48:10;100182.81;;;12.23;100.00
19777;BME280;10047;42.490;26.012;2023-04-19T04:50:36;100224.06;;;11.48;100.00
19777;BME280;10047;42.490;26.012;2023-04-19T04:53:01;100266.66;;;12.04;100.00
19777;BME280;10047;42.490;26.012;2023-04-19T04:55:27;100194.69;;;11.67;100.00
19777;BME280;10047;42.490;26.012;2023-04-19T04:57:52;100271.63;;;12.07;100.00
19777;BME280;10047;42.490;26.012;2023-04-19T05:00:18;100225.38;;;11.61;100.00
19777;BME280;10047;42.490;26.012;2023-04-19T05:02:43;100212.03;;;11.54;100.00
19777;BME280;10047;42.490;26.012;2023-04-19T05:05:09;100271.25;;;11.91;100.00
19777;BME280;10047;42.490;26.012;2023-04-19T05:07:35;100213.50;;;11.92;100.00
19777;BME280;10047;42.490;26.012;2023-04-19T05:10:01;100207.59;;;12.17;100.00
19777;BME280;10047;42.490;26.012;2023-04-19T05:12:26;100211.16;;;12.40;100.00
19777;BME280;10047;42.490;26.012;2023-04-19T05:14:51;100209.75;;;12.57;100.00
19777;BME280;10047;42.490;26.012;2023-04-19T05:17:17;100206.47;;;12.54;100.00
19777;BME280;10047;42.490;26.012;2023-04-19T05:19:43;100209.09;;;12.51;100.00
19777;BME280;10047;42.490;26.012;2023-04-19T05:22:08;100194.13;;;12.66;100.00
19777;BME280;10047;42.490;26.012;2023-04-19T05:24:34;100093.59;;;11.70;100.00
19777;BME280;10047;42.490;26.012;2023-04-19T05:26:59;100156.91;;;12.35;100.00
19777;BME280;10047;42.490;26.012;2023-04-19T05:29:25;100091.03;;;11.70;100.00
19777;BME280;10047;42.490;26.012;2023-04-19T05:31:51;100150.13;;;12.35;100.00
19777;BME280;10047;42.490;26.012;2023-04-19T05:34:16;100192.28;;;12.71;100.00
19777;BME280;10047;42.490;26.012;2023-04-19T05:36:42;100165.16;;;11.90;100.00
19777;BME280;10047;42.490;26.012;2023-04-19T05:39:07;100215.22;;;12.71;100.00
19777;BME280;10047;42.490;26.012;2023-04-19T05:41:33;100235.78;;;12.67;100.00
19777;BME280;10047;42.490;26.012;2023-04-19T05:43:59;100236.22;;;12.53;100.00
19777;BME280;10047;42.490;26.012;2023-04-19T05:46:24;100246.81;;;12.41;100.00
19777;BME280;10047;42.490;26.012;2023-04-19T05:48:50;100260.66;;;12.33;100.00
19777;BME280;10047;42.490;26.012;2023-04-19T05:51:15;100223.53;;;12.52;100.00
19777;BME280;10047;42.490;26.012;2023-04-19T05:53:43;100276.09;;;13.08;100.00
19777;BME280;10047;42.490;26.012;2023-04-19T05:56:09;100281.50;;;12.99;100.00
19777;BME280;10047;42.490;26.012;2023-04-19T05:58:34;100287.97;;;12.57;100.00
19777;BME280;10047;42.490;26.012;2023-04-19T06:01:01;100233.88;;;12.47;100.00
19777;BME280;10047;42.490;26.012;2023-04-19T06:03:27;100250.88;;;12.73;100.00
19777;BME280;10047;42.490;26.012;2023-04-19T06:05:52;100207.63;;;12.44;100.00
19777;BME280;10047;42.490;26.012;2023-04-19T06:08:17;100265.06;;;13.07;100.00
19777;BME280;10047;42.490;26.012;2023-04-19T06:10:44;100228.69;;;13.01;100.00
19777;BME280;10047;42.490;26.012;2023-04-19T06:13:12;100194.47;;;13.07;100.00
19777;BME280;10047;42.490;26.012;2023-04-19T06:15:37;100170.66;;;13.31;100.00
19777;BME280;10047;42.490;26.012;2023-04-19T06:18:05;100136.22;;;13.18;100.00
19777;BME280;10047;42.490;26.012;2023-04-19T06:20:38;100080.53;;;13.50;100.00
19777;BME280;10047;42.490;26.012;2023-04-19T06:23:04;99983.41;;;13.09;100.00
19777;BME280;10047;42.490;26.012;2023-04-19T06:25:29;99957.47;;;13.41;100.00
19777;BME280;10047;42.490;26.012;2023-04-19T06:27:55;99910.91;;;13.34;100.00
19777;BME280;10047;42.490;26.012;2023-04-19T06:30:20;99929.44;;;13.59;100.00
19777;BME280;10047;42.490;26.012;2023-04-19T06:32:46;99842.97;;;13.30;100.00
19777;BME280;10047;42.490;26.012;2023-04-19T06:35:13;99826.63;;;13.14;100.00
19777;BME280;10047;42.490;26.012;2023-04-19T06:37:38;99868.91;;;13.41;100.00
19777;BME280;10047;42.490;26.012;2023-04-19T06:40:04;99769.53;;;13.17;100.00
19777;BME280;10047;42.490;26.012;2023-04-19T06:42:32;99811.69;;;13.65;100.00
19777;BME280;10047;42.490;26.012;2023-04-19T06:44:57;99788.56;;;13.68;100.00
19777;BME280;10047;42.490;26.012;2023-04-19T06:47:23;99786.41;;;13.59;100.00
19777;BME280;10047;42.490;26.012;2023-04-19T06:49:48;99753.06;;;13.81;100.00
19777;BME280;10047;42.490;26.012;2023-04-19T06:52:14;99760.31;;;13.71;100.00
19777;BME280;10047;42.490;26.012;2023-04-19T06:54:39;99750.47;;;13.82;100.00
19777;BME280;10047;42.490;26.012;2023-04-19T06:57:05;99728.44;;;13.80;100.00
19777;BME280;10047;42.490;26.012;2023-04-19T06:59:31;99749.03;;;14.13;100.00
19777;BME280;10047;42.490;26.012;2023-04-19T07:01:57;99729.97;;;14.20;100.00
19777;BME280;10047;42.490;26.012;2023-04-19T07:04:24;99694.44;;;13.78;100.00
19777;BME280;10047;42.490;26.012;2023-04-19T07:06:50;99732.72;;;13.98;100.00
19777;BME280;10047;42.490;26.012;2023-04-19T07:09:15;99721.56;;;14.18;100.00
19777;BME280;10047;42.490;26.012;2023-04-19T07:11:41;99695.75;;;14.22;100.00
19777;BME280;10047;42.490;26.012;2023-04-19T07:14:06;99682.84;;;14.25;100.00
19777;BME280;10047;42.490;26.012;2023-04-19T07:16:32;99652.63;;;14.50;100.00
19777;BME280;10047;42.490;26.012;2023-04-19T07:19:03;99626.78;;;14.21;100.00
19777;BME280;10047;42.490;26.012;2023-04-19T07:21:29;99615.09;;;14.51;100.00
19777;BME280;10047;42.490;26.012;2023-04-19T07:23:57;99584.97;;;15.21;100.00
19777;BME280;10047;42.490;26.012;2023-04-19T07:26:23;99556.09;;;14.71;100.00
19777;BME280;10047;42.490;26.012;2023-04-19T07:28:48;99531.59;;;14.98;100.00
19777;BME280;10047;42.490;26.012;2023-04-19T07:31:18;99587.69;;;14.70;100.00
19777;BME280;10047;42.490;26.012;2023-04-19T07:33:43;99566.84;;;14.77;100.00
19777;BME280;10047;42.490;26.012;2023-04-19T07:36:09;99543.91;;;14.59;100.00
19777;BME280;10047;42.490;26.012;2023-04-19T07:38:35;99514.38;;;14.53;100.00
19777;BME280;10047;42.490;26.012;2023-04-19T07:41:02;99547.19;;;14.45;100.00
19777;BME280;10047;42.490;26.012;2023-04-19T07:43:29;99545.06;;;14.36;100.00
19777;BME280;10047;42.490;26.012;2023-04-19T07:45:54;99517.94;;;14.34;100.00
19777;BME280;10047;42.490;26.012;2023-04-19T07:48:21;99491.63;;;14.32;100.00
19777;BME280;10047;42.490;26.012;2023-04-19T07:50:47;99485.38;;;14.37;100.00
19777;BME280;10047;42.490;26.012;2023-04-19T07:53:13;99477.94;;;14.16;100.00
19777;BME280;10047;42.490;26.012;2023-04-19T07:55:38;99444.28;;;14.23;100.00
19777;BME280;10047;42.490;26.012;2023-04-19T07:58:03;99371.13;;;14.21;100.00
19777;BME280;10047;42.490;26.012;2023-04-19T08:00:29;99369.53;;;14.18;100.00
19777;BME280;10047;42.490;26.012;2023-04-19T08:02:55;99360.75;;;14.24;100.00
19777;BME280;10047;42.490;26.012;2023-04-19T08:05:21;99351.00;;;14.15;100.00
19777;BME280;10047;42.490;26.012;2023-04-19T08:07:47;99336.72;;;14.28;100.00
19777;BME280;10047;42.490;26.012;2023-04-19T08:10:13;99304.28;;;14.44;100.00
19777;BME280;10047;42.490;26.012;2023-04-19T08:12:39;99259.06;;;13.98;100.00
19777;BME280;10047;42.490;26.012;2023-04-19T08:15:06;99272.06;;;13.93;100.00
19777;BME280;10047;42.490;26.012;2023-04-19T08:17:32;99312.63;;;14.32;100.00
19777;BME280;10047;42.490;26.012;2023-04-19T08:19:58;99295.47;;;14.34;100.00
19777;BME280;10047;42.490;26.012;2023-04-19T08:22:24;99254.69;;;14.00;100.00
19777;BME280;10047;42.490;26.012;2023-04-19T08:24:50;99234.34;;;13.98;100.00
19777;BME280;10047;42.490;26.012;2023-04-19T08:27:19;99327.88;;;14.49;100.00
19777;BME280;10047;42.490;26.012;2023-04-19T08:29:44;99301.66;;;13.97;100.00
19777;BME280;10047;42.490;26.012;2023-04-19T08:32:11;99302.28;;;14.02;100.00
19777;BME280;10047;42.490;26.012;2023-04-19T08:34:37;99241.56;;;13.74;100.00
19777;BME280;10047;42.490;26.012;2023-04-19T08:37:06;99293.53;;;14.06;100.00
19777;BME280;10047;42.490;26.012;2023-04-19T08:39:33;99283.19;;;13.76;100.00
19777;BME280;10047;42.490;26.012;2023-04-19T08:42:07;99303.56;;;13.93;100.00
19777;BME280;10047;42.490;26.012;2023-04-19T08:44:35;99274.69;;;13.43;100.00
19777;BME280;10047;42.490;26.012;2023-04-19T08:47:03;99397.06;;;13.98;100.00
19777;BME280;10047;42.490;26.012;2023-04-19T08:49:29;99372.53;;;14.26;100.00
19777;BME280;10047;42.490;26.012;2023-04-19T08:51:58;99392.78;;;13.98;100.00
19777;BME280;10047;42.490;26.012;2023-04-19T08:54:28;99394.47;;;14.63;100.00
19777;BME280;10047;42.490;26.012;2023-04-19T08:56:57;99369.50;;;14.98;100.00
19777;BME280;10047;42.490;26.012;2023-04-19T08:59:22;99344.72;;;14.37;100.00
19777;BME280;10047;42.490;26.012;2023-04-19T09:01:48;99363.69;;;15.39;100.00
19777;BME280;10047;42.490;26.012;2023-04-19T09:04:13;99347.47;;;16.25;100.00
19777;BME280;10047;42.490;26.012;2023-04-19T09:06:41;99370.38;;;15.86;100.00
19777;BME280;10047;42.490;26.012;2023-04-19T09:09:24;99378.75;;;15.59;100.00
19777;BME280;10047;42.490;26.012;2023-04-19T09:11:49;99387.00;;;15.50;100.00
19777;BME280;10047;42.490;26.012;2023-04-19T09:14:26;99320.34;;;15.07;100.00
19777;BME280;10047;42.490;26.012;2023-04-19T09:16:52;99401.19;;;15.40;100.00
19777;BME280;10047;42.490;26.012;2023-04-19T09:19:17;99385.19;;;15.37;100.00
19777;BME280;10047;42.490;26.012;2023-04-19T09:21:43;99411.28;;;15.43;100.00
19777;BME280;10047;42.490;26.012;2023-04-19T09:24:09;99352.34;;;14.84;100.00
19777;BME280;10047;42.490;26.012;2023-04-19T09:26:35;99408.53;;;15.17;100.00
19777;BME280;10047;42.490;26.012;2023-04-19T09:29:02;99422.03;;;15.34;100.00
19777;BME280;10047;42.490;26.012;2023-04-19T09:34:11;99408.94;;;15.25;100.00
19777;BME280;10047;42.490;26.012;2023-04-19T09:36:38;99441.53;;;15.37;100.00
19777;BME280;10047;42.490;26.012;2023-04-19T09:39:03;99364.28;;;15.15;100.00
19777;BME280;10047;42.490;26.012;2023-04-19T09:41:30;99438.41;;;15.32;100.00
19777;BME280;10047;42.490;26.012;2023-04-19T09:44:09;99418.75;;;15.32;100.00
19777;BME280;10047;42.490;26.012;2023-04-19T09:46:36;99391.38;;;14.88;100.00
19777;BME280;10047;42.490;26.012;2023-04-19T09:49:14;99434.19;;;15.31;100.00
19777;BME280;10047;42.490;26.012;2023-04-19T09:51:43;99412.13;;;15.28;100.00
19777;BME280;10047;42.490;26.012;2023-04-19T09:54:11;99429.94;;;15.00;100.00
19777;BME280;10047;42.490;26.012;2023-04-19T09:56:37;99361.69;;;14.85;100.00
19777;BME280;10047;42.490;26.012;2023-04-19T09:59:05;99371.13;;;15.14;100.00
19777;BME280;10047;42.490;26.012;2023-04-19T10:04:06;99339.34;;;14.57;100.00
19777;BME280;10047;42.490;26.012;2023-04-19T10:06:33;99334.94;;;14.75;100.00
19777;BME280;10047;42.490;26.012;2023-04-19T10:09:01;99391.56;;;15.30;100.00
19777;BME280;10047;42.490;26.012;2023-04-19T10:11:35;99272.22;;;14.68;100.00
19777;BME280;10047;42.490;26.012;2023-04-19T10:14:08;99355.22;;;15.53;100.00
19777;BME280;10047;42.490;26.012;2023-04-19T10:16:35;99369.22;;;15.47;100.00
19777;BME280;10047;42.490;26.012;2023-04-19T10:19:10;99334.56;;;14.97;100.00
19777;BME280;10047;42.490;26.012;2023-04-19T10:21:36;99317.53;;;15.11;100.00
19777;BME280;10047;42.490;26.012;2023-04-19T10:24:03;99311.88;;;14.45;100.00
19777;BME280;10047;42.490;26.012;2023-04-19T10:26:29;99305.41;;;14.54;100.00
19777;BME280;10047;42.490;26.012;2023-04-19T10:28:55;99355.53;;;15.03;100.00
19777;BME280;10047;42.490;26.012;2023-04-19T10:31:21;99366.44;;;15.07;100.00
19777;BME280;10047;42.490;26.012;2023-04-19T10:33:49;99367.16;;;15.09;100.00
19777;BME280;10047;42.490;26.012;2023-04-19T10:36:17;99253.88;;;14.46;100.00
19777;BME280;10047;42.490;26.012;2023-04-19T10:38:46;99384.13;;;14.80;100.00
19777;BME280;10047;42.490;26.012;2023-04-19T10:41:14;99331.34;;;14.48;100.00
19777;BME280;10047;42.490;26.012;2023-04-19T10:44:27;99316.72;;;14.65;100.00
19777;BME280;10047;42.490;26.012;2023-04-19T10:48:57;99367.41;;;15.04;100.00
19777;BME280;10047;42.490;26.012;2023-04-19T10:51:26;99361.41;;;15.35;100.00
19777;BME280;10047;42.490;26.012;2023-04-19T10:54:05;99366.31;;;15.53;100.00
19777;BME280;10047;42.490;26.012;2023-04-19T11:01:34;99350.69;;;16.00;100.00
19777;BME280;10047;42.490;26.012;2023-04-19T11:04:06;99351.75;;;16.53;100.00
19777;BME280;10047;42.490;26.012;2023-04-19T11:06:32;99234.63;;;15.70;100.00
19777;BME280;10047;42.490;26.012;2023-04-19T11:08:58;99365.13;;;15.73;100.00
19777;BME280;10047;42.490;26.012;2023-04-19T11:11:25;99341.88;;;15.48;100.00
19777;BME280;10047;42.490;26.012;2023-04-19T11:13:56;99298.25;;;14.90;100.00
19777;BME280;10047;42.490;26.012;2023-04-19T11:16:22;99373.53;;;15.31;100.00
19777;BME280;10047;42.490;26.012;2023-04-19T11:18:47;99368.59;;;15.58;100.00
19777;BME280;10047;42.490;26.012;2023-04-19T11:21:18;99314.97;;;15.11;100.00
19777;BME280;10047;42.490;26.012;2023-04-19T11:23:43;99382.66;;;15.51;100.00
19777;BME280;10047;42.490;26.012;2023-04-19T11:26:09;99323.84;;;14.90;100.00
19777;BME280;10047;42.490;26.012;2023-04-19T11:28:36;99381.38;;;15.44;100.00
19777;BME280;10047;42.490;26.012;2023-04-19T11:31:02;99390.81;;;15.43;100.00
19777;BME280;10047;42.490;26.012;2023-04-19T11:33:32;99410.88;;;15.35;100.00
19777;BME280;10047;42.490;26.012;2023-04-19T11:35:58;99397.03;;;15.24;100.00
19777;BME280;10047;42.490;26.012;2023-04-19T11:38:29;99388.00;;;15.03;100.00
19777;BME280;10047;42.490;26.012;2023-04-19T11:41:02;99392.47;;;14.99;100.00
19777;BME280;10047;42.490;26.012;2023-04-19T11:43:32;99414.84;;;15.11;100.00
19777;BME280;10047;42.490;26.012;2023-04-19T11:46:04;99362.25;;;14.90;100.00
19777;BME280;10047;42.490;26.012;2023-04-19T11:48:30;99352.34;;;14.84;100.00
19777;BME280;10047;42.490;26.012;2023-04-19T11:50:57;99356.72;;;14.82;100.00
19777;BME280;10047;42.490;26.012;2023-04-19T11:53:24;99368.69;;;14.97;100.00
19777;BME280;10047;42.490;26.012;2023-04-19T11:55:56;99385.56;;;15.15;100.00
19777;BME280;10047;42.490;26.012;2023-04-19T12:00:51;99325.69;;;14.72;100.00
19777;BME280;10047;42.490;26.012;2023-04-19T12:03:20;99388.94;;;15.16;100.00
19777;BME280;10047;42.490;26.012;2023-04-19T12:08:29;99344.19;;;14.77;100.00
19777;BME280;10047;42.490;26.012;2023-04-19T12:10:58;99328.56;;;14.82;100.00
19777;BME280;10047;42.490;26.012;2023-04-19T12:13:24;99312.16;;;14.70;100.00
19777;BME280;10047;42.490;26.012;2023-04-19T12:15:50;99380.06;;;15.37;100.00
19777;BME280;10047;42.490;26.012;2023-04-19T12:18:15;99360.13;;;15.12;100.00
19777;BME280;10047;42.490;26.012;2023-04-19T12:20:46;99382.88;;;15.32;100.00
19777;BME280;10047;42.490;26.012;2023-04-19T12:23:12;99329.72;;;14.92;100.00
19777;BME280;10047;42.490;26.012;2023-04-19T12:25:40;99374.50;;;15.15;100.00
19777;BME280;10047;42.490;26.012;2023-04-19T12:28:06;99374.63;;;15.27;100.00
19777;BME280;10047;42.490;26.012;2023-04-19T12:30:31;99303.16;;;15.09;100.00
19777;BME280;10047;42.490;26.012;2023-04-19T12:32:57;99358.84;;;15.35;100.00
19777;BME280;10047;42.490;26.012;2023-04-19T12:35:27;99341.28;;;15.13;100.00
19777;BME280;10047;42.490;26.012;2023-04-19T12:37:54;99366.03;;;15.28;100.00
19777;BME280;10047;42.490;26.012;2023-04-19T12:40:20;99302.88;;;14.99;100.00
19777;BME280;10047;42.490;26.012;2023-04-19T12:42:46;99311.44;;;14.98;100.00
19777;BME280;10047;42.490;26.012;2023-04-19T12:45:12;99369.97;;;15.49;100.00
19777;BME280;10047;42.490;26.012;2023-04-19T12:47:42;99319.84;;;15.30;100.00
19777;BME280;10047;42.490;26.012;2023-04-19T12:50:08;99367.78;;;15.57;100.00